Airfield :
LOGIN :

Register | Disclaimer

   EN    FR    IT 

 










Legend :    VFR   Marginal VFR   IFR   Intensive IFR   Very Intensive IFR
Visi :
Ceiling :
>= 8 km
>= 3000ft
5 to 8 km
1000 to 3000 ft
1500m to 5 km
500 to 1000 ft
800 to 1500m
200 to 500 ft
< 800m
< 200 ft
Symbols :   Thunderstorms  Fog  Heavy snow  Heavy precipitations  Wind > 20 kt
SIGMETs :     Misc.  Thunderstorms  Icing  Turbulence  Mountain Waves  Volcanic Ashes







- Airport Elevation : 238 ft
- IATA code : FAB
- Download approach charts


EGLF - Farnborough

CURRENT METAR :
  • 161150Z 20015KT 4000 DZ SCT004 BKN006 09/08 Q1004

EXPIRED METARs :
  • 161120Z 21015KT 6000 -DZ SCT005 BKN006 09/08 Q1004
  • 161050Z 20015KT 7000 -DZ SCT005 BKN006 08/08 Q1005
  • 161020Z 21012G22KT 160V230 9000 SCT005 BKN006 08/08 Q1005
  • 160950Z 21014KT 190V250 9000 -DZ SCT005 BKN007 08/07 Q1006
  • 160920Z 21012KT 7000 -DZ SCT005 BKN009 08/07 Q1006
  • 160850Z 20014KT 4200 -DZ SCT005 BKN009 08/07 Q1006

TAF TAF EGLF
Valid from the 16 at 12:00 until the 16 at 21:00 UTC


161102Z 1612/1621 22012KT 9999 SCT016
TEMPO 1612/1616 23016G26KT 8000 -RADZ BKN006
PROB40
TEMPO 1612/1614 3000 RADZ
PROB40
TEMPO 1614/1616 3000 +RA
BECMG 1616/1619 28008KT
ATIS : +44 09063 800 400 (*282)
No reported NOTAMs for that airfield.



MET'MAP, your aeronautical weather chart ! - Copyright ORBIFLY December 2007 - Disclaimer

ORBIFLY MET'MAP TEAM :

Programming & Development : Alexandra Zaïnal
Concept & Development : Baudouin d'Aumeries
Co-Development & Prog : Marc-Olivier Méhu
Technical & hardware support : Manuel Goepfert

Contact : metmap@orbifly.com




SOURCES & CREDITS :

   NOAA